Meath Environmental Platform

Observations for Trim Patrick St

Time AQI Temp °C Hum % Pres Pa CO μg/m³ H₂S μg/m³ NO μg/m³ NO₂ μg/m³ O₃ μg/m³ SO₂ μg/m³ PM1 μg/m³ PM2.5 μg/m³ PM10 μg/m³
Monday 3 August 2026
13:23 2 30 34 69,169 0 1.03 1.37 21.81 200.59 12.28 3.71 9.83 10.82
13:22 2 30 34 69,171 0 0.44 1.39 22.94 196.52 11.47 3.71 8.98 9.88
13:21 2 30 32 69,171 0 0 1.26 20.59 210.6 11.39 4.57 9.93 10.93
13:19 2 30 33 69,181 0 0 1.29 20.78 191.88 11.82 2.86 9.1 10.01
13:18 2 30.1 35 69,189 0 0 1.44 7.89 90.52 12.97 4.57 9.77 10.75
13:17 2 30.1 32 69,191 0 0 1.3 19.54 179.26 11.45 3.71 9.12 10.03
13:16 2 30.1 35 69,167 0 0 1.46 14.63 139.28 12.52 4.57 10.53 11.59
13:15 2 30.1 34 69,195 0 0 1.39 15.27 190.87 12.22 3.71 9.83 10.82
13:14 2 30.2 34 69,204 0 0 1.39 8.34 79.07 11.48 4.57 11.45 12.59
13:13 2 30.2 33 69,189 0 0 1.33 20.8 177.4 11.78 4.57 10.7 11.77
13:12 2 30.2 32 69,191 0 0 1.25 12.22 102.18 10.79 4.57 10.79 11.87
13:11 2 30.2 35 69,193 0 0 1.48 17.55 153.58 11.57 2.86 9.77 10.74
13:10 2 30.1 35 69,197 0 0 1.46 13.83 149.56 11.36 4.57 9.73 10.7
13:09 2 30.1 35 69,177 0 0 1.44 13.2 104.85 11.44 4.57 11.36 12.49
13:07 2 30.1 35 69,179 0 0 1.44 14.81 170.32 12.27 3.71 9.72 10.69
13:06 2 30.1 36 69,181 0 0 1.47 13.21 126.86 12.93 3.71 9.71 10.68
13:05 2 30.1 32 69,181 0 0 1.26 17.07 147.55 10.75 2.86 8.37 9.21
13:04 2 30.2 32 69,185 0 0 1.31 14.64 121.89 10.72 3.71 9.95 10.94
13:03 2 30.2 33 69,189 0 0 1.36 19.71 164.52 11.54 2.86 9.1 10.01
13:02 2 30.2 33 69,193 0 0 1.44 14.88 114.54 10.86 3.71 9.86 10.84